createdAt,value
2023-09-26T00:00:22.398Z,11.30
2023-09-26T00:02:50.950Z,11.20
2023-09-26T00:05:23.424Z,11.20
2023-09-26T00:07:55.355Z,11.20
2023-09-26T00:10:27.998Z,11.20
2023-09-26T00:12:54.845Z,11.20
2023-09-26T00:15:25.339Z,11.20
2023-09-26T00:17:52.249Z,11.20
2023-09-26T00:20:19.510Z,11.20
2023-09-26T00:25:46.816Z,11.10
2023-09-26T00:28:15.145Z,11.00
2023-09-26T00:30:42.646Z,11.00
2023-09-26T00:33:09.475Z,11.00
2023-09-26T00:35:36.233Z,10.90
2023-09-26T00:38:10.193Z,10.80
2023-09-26T00:40:44.481Z,10.80
2023-09-26T00:43:23.768Z,10.70
2023-09-26T00:45:56.610Z,10.70
2023-09-26T00:51:24.537Z,10.70
2023-09-26T00:53:51.378Z,10.70
2023-09-26T00:56:18.187Z,10.70
2023-09-26T00:58:47.774Z,10.80
2023-09-26T01:01:16.410Z,10.80
2023-09-26T01:03:46.448Z,10.70
2023-09-26T01:06:16.200Z,10.60
2023-09-26T01:08:42.882Z,10.60
2023-09-26T01:11:17.756Z,10.50
2023-09-26T01:13:47.141Z,10.50
2023-09-26T01:16:15.691Z,10.50
2023-09-26T01:18:45.499Z,10.40
2023-09-26T01:21:12.588Z,10.40
2023-09-26T01:23:41.509Z,10.40
2023-09-26T01:26:15.737Z,10.50
2023-09-26T01:28:45.564Z,10.50
2023-09-26T01:31:12.354Z,10.60
2023-09-26T01:33:41.580Z,10.60
2023-09-26T01:36:08.987Z,10.70
2023-09-26T01:39:02.672Z,10.70
2023-09-26T01:41:30.617Z,10.60
2023-09-26T01:43:59.771Z,10.60
2023-09-26T01:46:43.004Z,10.60
2023-09-26T01:49:10.831Z,10.50
2023-09-26T01:51:39.326Z,10.50
2023-09-26T01:54:06.195Z,10.40
2023-09-26T01:56:33.246Z,10.40
2023-09-26T01:59:04.701Z,10.30
2023-09-26T02:01:32.705Z,10.20
2023-09-26T02:04:00.473Z,10.10
2023-09-26T02:06:29.306Z,10.00
2023-09-26T02:08:59.515Z,10.00
2023-09-26T02:11:26.295Z,9.90
2023-09-26T02:13:53.200Z,9.90
2023-09-26T02:16:24.146Z,9.90
2023-09-26T02:18:57.102Z,9.80
2023-09-26T02:22:02.511Z,9.80
2023-09-26T02:24:58.466Z,9.90
2023-09-26T02:27:25.140Z,10.00
2023-09-26T02:30:26.865Z,10.00
2023-09-26T02:32:59.525Z,10.10
2023-09-26T02:35:26.476Z,10.10
2023-09-26T02:37:55.585Z,10.10
2023-09-26T02:40:22.594Z,10.00
2023-09-26T02:42:50.663Z,10.00
2023-09-26T02:45:17.995Z,9.90
2023-09-26T02:47:45.318Z,9.90
2023-09-26T02:50:14.567Z,9.90
2023-09-26T02:52:47.452Z,9.80
2023-09-26T02:55:16.310Z,9.80
2023-09-26T02:57:43.113Z,9.80
2023-09-26T03:00:19.731Z,9.80
2023-09-26T03:02:51.559Z,9.70
2023-09-26T03:05:18.464Z,9.70
2023-09-26T03:07:45.453Z,9.70
2023-09-26T03:10:12.532Z,9.70
2023-09-26T03:12:46.758Z,9.80
2023-09-26T03:15:19.604Z,9.80
2023-09-26T03:17:46.935Z,9.90
2023-09-26T03:20:17.059Z,10.00
2023-09-26T03:22:44.106Z,10.00
2023-09-26T03:25:12.303Z,10.00
2023-09-26T03:27:39.244Z,9.90
2023-09-26T03:30:12.947Z,9.90
2023-09-26T03:32:40.553Z,9.80
2023-09-26T03:35:12.584Z,9.70
2023-09-26T03:37:39.938Z,9.70
2023-09-26T03:40:21.247Z,9.70
2023-09-26T03:42:50.438Z,9.70
2023-09-26T03:45:19.315Z,9.70
2023-09-26T03:47:50.476Z,9.70
2023-09-26T03:50:42.957Z,9.60
2023-09-26T03:53:09.805Z,9.60
2023-09-26T03:55:36.417Z,9.50
2023-09-26T03:58:03.139Z,9.50
2023-09-26T04:00:29.910Z,9.50
2023-09-26T04:03:01.646Z,9.50
2023-09-26T04:05:28.476Z,9.60
2023-09-26T04:07:55.125Z,9.50
2023-09-26T04:10:21.860Z,9.50
2023-09-26T04:12:50.436Z,9.50
2023-09-26T04:15:17.742Z,9.40
2023-09-26T04:17:45.961Z,9.40
2023-09-26T04:20:20.024Z,9.50
2023-09-26T04:23:02.036Z,9.50
2023-09-26T04:25:35.521Z,9.50
2023-09-26T04:28:03.680Z,9.40
2023-09-26T04:30:36.761Z,9.40
2023-09-26T04:33:04.484Z,9.40
2023-09-26T04:35:31.165Z,9.30
2023-09-26T04:37:59.222Z,9.20
2023-09-26T04:40:33.801Z,9.10
2023-09-26T04:43:04.726Z,9.00
2023-09-26T04:45:32.828Z,9.00
2023-09-26T04:48:00.913Z,9.10
2023-09-26T04:50:29.770Z,9.20
2023-09-26T04:52:57.602Z,9.10
2023-09-26T04:55:27.946Z,9.10
2023-09-26T04:57:55.322Z,9.00
2023-09-26T05:00:27.853Z,8.90
2023-09-26T05:02:55.397Z,8.80
2023-09-26T05:05:22.776Z,8.80
2023-09-26T05:07:55.669Z,8.80
2023-09-26T05:10:23.020Z,8.70
2023-09-26T05:12:55.441Z,8.70
2023-09-26T05:15:24.471Z,8.70
2023-09-26T05:17:53.871Z,8.70
2023-09-26T05:20:20.809Z,8.70
2023-09-26T05:22:50.064Z,8.70
2023-09-26T05:25:17.958Z,8.70
2023-09-26T05:27:47.346Z,8.80
2023-09-26T05:30:18.706Z,8.80
2023-09-26T05:32:46.623Z,8.90
2023-09-26T05:35:16.826Z,8.90
2023-09-26T05:37:44.804Z,8.90
2023-09-26T05:40:14.327Z,9.00
2023-09-26T05:42:41.161Z,8.90
2023-09-26T05:45:12.834Z,8.90
2023-09-26T05:47:39.931Z,8.90
2023-09-26T05:50:07.068Z,8.90
2023-09-26T05:52:33.909Z,8.90
2023-09-26T05:55:04.255Z,8.90
2023-09-26T05:57:31.617Z,9.00
2023-09-26T05:59:59.456Z,9.00
2023-09-26T06:02:26.249Z,9.10
2023-09-26T06:04:56.980Z,9.20
2023-09-26T06:07:25.210Z,9.30
2023-09-26T06:10:07.396Z,9.30
2023-09-26T06:12:36.422Z,9.40
2023-09-26T06:15:06.122Z,9.50
2023-09-26T06:17:36.234Z,9.50
2023-09-26T06:20:08.263Z,9.60
2023-09-26T06:22:35.006Z,9.60
2023-09-26T06:25:06.910Z,9.60
2023-09-26T06:27:42.776Z,9.60
2023-09-26T06:30:11.851Z,9.60
2023-09-26T06:32:39.860Z,9.60
2023-09-26T06:35:07.031Z,9.60
2023-09-26T06:37:36.116Z,9.60
2023-09-26T06:40:22.080Z,9.70
2023-09-26T06:42:48.866Z,9.70
2023-09-26T06:45:16.290Z,9.80
2023-09-26T06:47:43.825Z,9.90
2023-09-26T06:50:11.484Z,9.90
2023-09-26T06:52:41.192Z,10.00
2023-09-26T06:55:14.008Z,10.10
2023-09-26T06:57:41.655Z,10.20
2023-09-26T07:00:17.454Z,10.30
2023-09-26T07:02:48.285Z,10.40
2023-09-26T07:05:40.604Z,10.50
2023-09-26T07:08:15.137Z,10.60
2023-09-26T07:10:42.992Z,10.70
2023-09-26T07:13:21.388Z,10.90
2023-09-26T07:16:01.206Z,10.90
2023-09-26T07:18:37.907Z,11.10
2023-09-26T07:21:13.166Z,11.20
2023-09-26T07:23:42.472Z,11.30
2023-09-26T07:26:15.314Z,11.40
2023-09-26T07:28:50.212Z,11.60
2023-09-26T07:31:21.975Z,11.70
2023-09-26T07:33:50.582Z,11.90
2023-09-26T07:36:17.634Z,12.10
2023-09-26T07:38:44.839Z,12.30
2023-09-26T07:41:11.649Z,12.50
2023-09-26T07:43:38.400Z,12.60
2023-09-26T07:46:06.591Z,12.80
2023-09-26T07:48:35.009Z,13.00
2023-09-26T07:51:06.337Z,13.20
2023-09-26T07:53:33.170Z,13.40
2023-09-26T07:56:02.209Z,13.60
2023-09-26T07:58:32.112Z,13.70
2023-09-26T08:01:01.009Z,13.90
2023-09-26T08:03:27.759Z,14.10
2023-09-26T08:06:10.408Z,14.30
2023-09-26T08:08:39.621Z,14.40
2023-09-26T08:11:08.908Z,14.60
2023-09-26T08:13:39.737Z,14.70
2023-09-26T08:16:07.187Z,14.90
2023-09-26T08:18:34.043Z,15.00
2023-09-26T08:21:01.000Z,15.20
2023-09-26T08:23:30.294Z,15.30
2023-09-26T08:26:08.282Z,15.50
2023-09-26T08:28:37.973Z,15.70
2023-09-26T08:31:11.368Z,15.80
2023-09-26T08:33:38.646Z,15.90
2023-09-26T08:36:19.201Z,16.10
2023-09-26T08:38:47.615Z,16.20
2023-09-26T08:41:17.703Z,16.40
2023-09-26T08:43:47.789Z,16.50
2023-09-26T08:46:15.416Z,16.60
2023-09-26T08:48:44.450Z,16.80
2023-09-26T08:51:11.689Z,16.80
2023-09-26T08:53:41.239Z,17.00
2023-09-26T08:56:08.124Z,17.30
2023-09-26T08:58:41.613Z,17.60
2023-09-26T09:01:08.970Z,17.60
2023-09-26T09:03:38.472Z,17.70
2023-09-26T09:06:05.675Z,17.90
2023-09-26T09:08:32.331Z,18.10
2023-09-26T09:10:59.478Z,18.30
2023-09-26T09:13:39.152Z,18.60
2023-09-26T09:16:16.259Z,18.80
2023-09-26T09:18:50.968Z,19.10
2023-09-26T09:21:26.474Z,19.40
2023-09-26T09:23:54.378Z,19.60
2023-09-26T09:26:22.555Z,19.90
2023-09-26T09:28:55.859Z,20.10
2023-09-26T09:31:26.278Z,20.40
2023-09-26T09:33:53.580Z,20.60
2023-09-26T09:36:22.934Z,20.80
2023-09-26T09:38:53.441Z,21.00
2023-09-26T09:41:26.227Z,21.10
2023-09-26T09:43:53.544Z,21.20
2023-09-26T09:46:23.859Z,21.40
2023-09-26T09:48:59.787Z,21.40
2023-09-26T09:51:27.100Z,21.30
2023-09-26T09:53:58.869Z,21.30
2023-09-26T09:56:33.974Z,21.50
2023-09-26T09:59:06.313Z,21.90
2023-09-26T10:01:36.638Z,21.90
2023-09-26T10:04:05.088Z,22.20
2023-09-26T10:06:33.134Z,22.50
2023-09-26T10:09:01.085Z,22.70
2023-09-26T10:11:30.179Z,22.80
2023-09-26T10:13:59.162Z,22.90
2023-09-26T10:16:44.555Z,23.00
2023-09-26T10:19:12.207Z,23.30
2023-09-26T10:21:44.798Z,23.50
2023-09-26T10:24:12.831Z,23.60
2023-09-26T10:26:43.945Z,23.60
2023-09-26T10:29:37.948Z,23.60
2023-09-26T10:32:11.223Z,23.90
2023-09-26T10:37:27.860Z,24.40
2023-09-26T10:39:58.731Z,24.60
2023-09-26T10:43:01.804Z,24.30
2023-09-26T10:45:13.382Z,23.90
2023-09-26T10:47:41.136Z,23.80
2023-09-26T10:50:12.679Z,23.50
2023-09-26T10:52:49.324Z,23.70
2023-09-26T10:55:22.752Z,23.90
2023-09-26T10:57:54.851Z,23.60
2023-09-26T11:00:21.846Z,23.50
2023-09-26T11:02:54.259Z,23.70
2023-09-26T11:05:27.304Z,24.00
2023-09-26T11:07:58.404Z,24.40
2023-09-26T11:10:25.794Z,24.50
2023-09-26T11:12:54.461Z,24.90
2023-09-26T11:15:21.250Z,25.10
2023-09-26T11:17:53.549Z,25.00
2023-09-26T11:20:20.571Z,25.00
2023-09-26T11:22:49.366Z,25.20
2023-09-26T11:25:16.222Z,25.10
2023-09-26T11:27:48.268Z,25.20
2023-09-26T11:30:22.001Z,25.40
2023-09-26T11:32:53.088Z,25.50
2023-09-26T11:35:21.461Z,25.80
2023-09-26T11:37:53.371Z,25.90
2023-09-26T11:40:26.844Z,25.90
2023-09-26T11:42:56.058Z,26.00
2023-09-26T11:45:26.798Z,26.20
2023-09-26T11:47:56.660Z,26.50
2023-09-26T11:50:30.754Z,26.70
2023-09-26T11:53:01.387Z,26.90
2023-09-26T11:55:36.261Z,26.90
2023-09-26T11:58:03.342Z,26.90
2023-09-26T12:00:35.292Z,26.70
2023-09-26T12:03:08.742Z,26.50
2023-09-26T12:05:40.332Z,26.50
2023-09-26T12:08:07.065Z,26.50
2023-09-26T12:10:33.922Z,26.40
2023-09-26T12:13:29.389Z,26.40
2023-09-26T12:15:57.628Z,26.50
2023-09-26T12:18:24.396Z,26.20
2023-09-26T12:20:56.302Z,26.10
2023-09-26T12:23:24.574Z,26.40
2023-09-26T12:25:54.946Z,26.80
2023-09-26T12:28:25.921Z,27.00
2023-09-26T12:30:53.374Z,27.40
2023-09-26T12:33:21.879Z,27.60
2023-09-26T12:35:51.203Z,27.70
2023-09-26T12:38:23.592Z,27.90
2023-09-26T12:40:52.545Z,27.60
2023-09-26T12:43:19.457Z,27.50
2023-09-26T12:45:46.126Z,27.90
2023-09-26T12:48:15.083Z,28.00
2023-09-26T12:50:45.406Z,28.20
2023-09-26T12:53:16.793Z,28.30
2023-09-26T12:55:46.583Z,28.50
2023-09-26T12:58:13.445Z,28.80
2023-09-26T13:00:40.697Z,28.90
2023-09-26T13:03:12.369Z,29.00
2023-09-26T13:05:42.074Z,29.20
2023-09-26T13:08:15.396Z,28.90
2023-09-26T13:10:48.757Z,28.80
2023-09-26T13:13:16.503Z,29.00
2023-09-26T13:15:47.672Z,29.30
2023-09-26T13:18:16.541Z,29.30
2023-09-26T13:20:43.450Z,29.50
2023-09-26T13:23:10.351Z,29.50
2023-09-26T13:25:37.566Z,29.40
2023-09-26T13:28:04.644Z,29.60
2023-09-26T13:30:35.113Z,29.70
2023-09-26T13:33:06.591Z,29.90
2023-09-26T13:35:33.670Z,30.00
2023-09-26T13:38:06.392Z,30.00
2023-09-26T13:40:37.907Z,30.00
2023-09-26T13:43:04.827Z,30.00
2023-09-26T13:45:33.640Z,30.00
2023-09-26T13:48:02.713Z,29.90
2023-09-26T13:50:32.026Z,30.00
2023-09-26T13:53:00.413Z,29.90
2023-09-26T13:55:27.947Z,29.90
2023-09-26T13:57:59.528Z,29.80
2023-09-26T14:00:28.144Z,30.00
2023-09-26T14:02:58.155Z,30.10
2023-09-26T14:05:25.327Z,30.20
2023-09-26T14:08:04.537Z,30.30
2023-09-26T14:10:49.895Z,30.50
2023-09-26T14:13:31.778Z,30.70
2023-09-26T14:16:20.569Z,30.80
2023-09-26T14:18:52.255Z,30.70
2023-09-26T14:21:58.435Z,30.60
2023-09-26T14:24:32.684Z,30.60
2023-09-26T14:27:23.057Z,30.70
2023-09-26T14:30:05.865Z,30.80
2023-09-26T14:32:43.178Z,30.80
2023-09-26T14:35:11.315Z,30.50
2023-09-26T14:40:28.150Z,30.10
2023-09-26T14:45:54.744Z,30.00
2023-09-26T14:48:25.095Z,29.70
2023-09-26T14:50:57.186Z,29.50
2023-09-26T14:53:26.375Z,29.20
2023-09-26T14:55:55.089Z,29.30
2023-09-26T14:58:24.863Z,29.30
2023-09-26T15:00:52.472Z,29.20
2023-09-26T15:23:45.893Z,28.60
2023-09-26T15:26:15.132Z,28.60
2023-09-26T15:28:49.508Z,28.70
2023-09-26T15:31:19.624Z,28.60
2023-09-26T15:33:56.059Z,28.50
2023-09-26T15:36:31.367Z,28.40
2023-09-26T15:39:25.931Z,28.30
2023-09-26T15:44:47.614Z,27.90
2023-09-26T15:47:47.881Z,27.50
2023-09-26T15:50:16.969Z,27.20
2023-09-26T15:52:45.582Z,27.00
2023-09-26T15:55:22.687Z,26.80
2023-09-26T15:57:49.578Z,26.70
2023-09-26T16:00:29.459Z,26.60
2023-09-26T16:03:24.593Z,26.50
2023-09-26T16:05:52.468Z,26.20
2023-09-26T16:08:19.523Z,26.10
2023-09-26T16:10:49.291Z,26.00
2023-09-26T16:13:22.705Z,25.80
2023-09-26T16:18:56.134Z,25.50
2023-09-26T16:21:25.890Z,25.40
2023-09-26T16:23:55.844Z,25.20
2023-09-26T16:27:18.178Z,25.10
2023-09-26T16:29:48.566Z,25.00
2023-09-26T16:32:15.622Z,24.90
2023-09-26T16:34:46.717Z,24.70
2023-09-26T16:37:17.837Z,24.60
2023-09-26T16:41:00.676Z,24.40
2023-09-26T16:43:57.325Z,24.30
2023-09-26T16:46:24.337Z,24.10
2023-09-26T16:48:52.544Z,24.00
2023-09-26T16:51:19.361Z,23.90
2023-09-26T16:53:54.184Z,23.80
2023-09-26T16:56:24.367Z,23.70
2023-09-26T16:58:55.636Z,23.60
2023-09-26T17:02:17.448Z,23.60
2023-09-26T17:04:45.828Z,23.50
2023-09-26T17:07:21.798Z,23.40
2023-09-26T17:09:48.701Z,23.40
2023-09-26T17:12:15.854Z,23.30
2023-09-26T17:14:50.418Z,23.10
2023-09-26T17:17:46.382Z,22.70
2023-09-26T17:20:18.076Z,22.30
2023-09-26T17:22:46.168Z,21.90
2023-09-26T17:25:19.224Z,21.60
2023-09-26T17:27:52.435Z,21.30
2023-09-26T17:30:47.347Z,21.10
2023-09-26T17:33:14.607Z,20.70
2023-09-26T17:35:44.265Z,20.50
2023-09-26T17:38:11.488Z,20.30
2023-09-26T17:40:41.818Z,20.10
2023-09-26T17:43:09.856Z,19.90
2023-09-26T17:45:44.114Z,19.80
2023-09-26T17:48:17.365Z,19.60
2023-09-26T17:50:45.372Z,19.40
2023-09-26T17:53:12.599Z,19.30
2023-09-26T17:55:41.822Z,19.00
2023-09-26T17:58:09.064Z,18.90
2023-09-26T18:00:46.610Z,18.80
2023-09-26T18:03:41.209Z,18.60
2023-09-26T18:06:11.640Z,18.50
2023-09-26T18:08:43.026Z,18.40
2023-09-26T18:11:43.000Z,18.30
2023-09-26T18:14:39.676Z,18.30
2023-09-26T18:17:13.372Z,18.10
2023-09-26T18:22:47.900Z,17.80
2023-09-26T18:25:14.617Z,17.70
2023-09-26T18:27:46.857Z,17.50
2023-09-26T18:30:14.706Z,17.50
2023-09-26T18:33:09.312Z,17.30
2023-09-26T18:35:40.504Z,17.20
2023-09-26T18:38:33.757Z,17.20
2023-09-26T18:43:45.937Z,17.10
2023-09-26T18:46:15.145Z,17.00
2023-09-26T18:48:45.395Z,16.90
2023-09-26T18:51:12.942Z,16.90
2023-09-26T19:05:46.711Z,16.60
2023-09-26T19:08:13.636Z,16.70
2023-09-26T19:10:42.098Z,16.70
2023-09-26T19:13:09.064Z,16.60
2023-09-26T19:15:37.977Z,16.50
2023-09-26T19:18:07.874Z,16.50
2023-09-26T19:24:29.818Z,16.30
2023-09-26T19:27:00.981Z,16.10
2023-09-26T19:29:29.608Z,16.10
2023-09-26T19:32:48.349Z,16.00
2023-09-26T19:39:32.724Z,15.80
2023-09-26T19:42:00.687Z,15.70
2023-09-26T19:45:18.438Z,15.60
2023-09-26T19:47:48.141Z,15.50
2023-09-26T19:50:20.163Z,15.40
2023-09-26T19:52:50.943Z,15.40
2023-09-26T19:55:20.649Z,15.30
2023-09-26T19:57:51.027Z,15.30
2023-09-26T20:00:22.446Z,15.30
2023-09-26T20:02:52.783Z,15.40
2023-09-26T20:05:27.293Z,15.30
2023-09-26T20:07:57.795Z,15.30
2023-09-26T20:10:27.362Z,15.30
2023-09-26T20:13:00.052Z,15.30
2023-09-26T20:15:33.194Z,15.30
2023-09-26T20:18:04.055Z,15.20
2023-09-26T20:20:34.510Z,15.10
2023-09-26T20:27:07.571Z,15.00
2023-09-26T20:44:37.693Z,14.60
2023-09-26T20:51:18.547Z,14.40
2023-09-26T21:00:33.209Z,14.20
2023-09-26T21:09:57.323Z,14.10
2023-09-26T21:21:58.354Z,14.10
2023-09-26T21:25:38.674Z,14.10
2023-09-26T22:11:53.085Z,13.50
2023-09-26T22:14:58.429Z,13.50
2023-09-26T22:18:27.331Z,13.50
2023-09-26T22:42:07.566Z,13.30
2023-09-26T22:55:11.416Z,13.40
2023-09-26T23:01:19.974Z,13.50
2023-09-26T23:06:55.740Z,13.60
2023-09-26T23:09:23.003Z,13.60
2023-09-26T23:11:52.499Z,13.60
2023-09-26T23:14:28.587Z,13.60
2023-09-26T23:20:29.613Z,13.60
2023-09-26T23:22:58.965Z,13.40
2023-09-26T23:25:29.558Z,13.30
2023-09-26T23:27:56.494Z,13.20
2023-09-26T23:30:24.060Z,13.10
2023-09-26T23:32:54.492Z,13.00
2023-09-26T23:35:26.487Z,12.90
2023-09-26T23:37:55.503Z,12.90
2023-09-26T23:40:23.112Z,12.80
2023-09-26T23:42:56.559Z,12.70
2023-09-26T23:45:24.608Z,12.80
2023-09-26T23:47:51.326Z,12.80
2023-09-26T23:50:19.394Z,12.80
2023-09-26T23:53:05.918Z,12.80
2023-09-26T23:55:35.081Z,12.80
2023-09-26T23:58:04.763Z,12.80
